createdAt,value
2023-03-24T00:01:08.581Z,44.62
2023-03-24T00:07:14.465Z,44.54
2023-03-24T00:13:16.327Z,44.86
2023-03-24T00:19:19.416Z,45.33
2023-03-24T00:25:23.122Z,44.85
2023-03-24T00:31:25.158Z,44.95
2023-03-24T00:37:26.821Z,45.02
2023-03-24T00:43:29.139Z,45.34
2023-03-24T00:49:44.182Z,45.47
2023-03-24T00:55:48.799Z,45.26
2023-03-24T01:01:50.868Z,45.41
2023-03-24T01:07:55.720Z,45.33
2023-03-24T01:13:57.928Z,45.13
2023-03-24T01:20:06.893Z,44.96
2023-03-24T01:26:09.993Z,45.06
2023-03-24T01:32:11.797Z,45.28
2023-03-24T01:38:14.064Z,45.48
2023-03-24T01:44:33.611Z,45.46
2023-03-24T01:50:35.326Z,45.48
2023-03-24T01:56:41.868Z,45.42
2023-03-24T02:02:48.677Z,45.37
2023-03-24T02:08:54.912Z,45.58
2023-03-24T02:14:57.111Z,46.01
2023-03-24T02:20:58.606Z,46.08
2023-03-24T02:27:03.046Z,46.19
2023-03-24T02:33:16.879Z,45.91
2023-03-24T02:39:29.294Z,45.93
2023-03-24T02:45:44.730Z,46.09
2023-03-24T02:51:57.892Z,46.02
2023-03-24T02:58:11.025Z,45.86
2023-03-24T03:04:32.314Z,46.00
2023-03-24T03:10:43.253Z,46.06
2023-03-24T03:16:59.203Z,46.14
2023-03-24T03:23:05.123Z,46.74
2023-03-24T03:29:21.280Z,47.31
2023-03-24T03:36:00.339Z,47.49
2023-03-24T03:42:02.876Z,47.60
2023-03-24T03:48:05.260Z,47.23
2023-03-24T03:54:10.117Z,46.72
2023-03-24T04:00:16.416Z,47.14
2023-03-24T04:06:53.184Z,47.75
2023-03-24T04:13:13.808Z,47.55
2023-03-24T04:20:11.542Z,48.86
2023-03-24T04:26:28.034Z,48.92
2023-03-24T04:32:46.318Z,48.40
2023-03-24T04:38:52.516Z,48.48
2023-03-24T04:45:05.683Z,48.95
2023-03-24T04:51:21.644Z,48.59
2023-03-24T04:57:34.624Z,49.21
2023-03-24T05:03:41.527Z,49.37
2023-03-24T05:09:43.260Z,49.49
2023-03-24T05:15:46.099Z,52.08
2023-03-24T05:22:08.074Z,53.66
2023-03-24T05:28:09.626Z,52.13
2023-03-24T05:34:11.091Z,52.82
2023-03-24T05:40:22.655Z,53.35
2023-03-24T05:46:44.489Z,53.53
2023-03-24T05:52:45.974Z,52.69
2023-03-24T05:59:05.119Z,52.11
2023-03-24T06:05:47.102Z,53.83
2023-03-24T06:11:49.531Z,55.07
2023-03-24T06:17:55.090Z,55.68
2023-03-24T06:24:07.076Z,56.29
2023-03-24T06:30:10.376Z,56.08
2023-03-24T06:36:12.822Z,55.54
2023-03-24T06:42:17.919Z,54.67
2023-03-24T06:48:19.737Z,53.84
2023-03-24T06:54:21.643Z,53.56
2023-03-24T07:00:25.132Z,53.27
2023-03-24T07:06:58.647Z,53.32
2023-03-24T07:13:07.367Z,53.47
2023-03-24T07:19:09.675Z,53.17
2023-03-24T07:25:13.612Z,52.77
2023-03-24T07:31:22.262Z,52.22
2023-03-24T07:37:27.906Z,51.46
2023-03-24T07:43:29.785Z,51.24
2023-03-24T07:49:53.237Z,50.00
2023-03-24T07:55:57.231Z,50.22
2023-03-24T08:02:00.187Z,49.88
2023-03-24T08:08:24.108Z,49.51
2023-03-24T08:14:26.309Z,48.82
2023-03-24T08:20:28.895Z,48.12
2023-03-24T08:26:34.377Z,47.75
2023-03-24T08:32:36.211Z,47.53
2023-03-24T08:38:40.404Z,47.18
2023-03-24T08:44:41.938Z,47.11
2023-03-24T08:50:43.614Z,46.66
2023-03-24T08:56:47.696Z,46.40
2023-03-24T09:02:53.234Z,45.44
2023-03-24T09:08:54.972Z,44.59
2023-03-24T09:14:56.510Z,44.14
2023-03-24T09:20:58.038Z,43.60
2023-03-24T09:26:59.701Z,42.82
2023-03-24T09:33:01.735Z,41.48
2023-03-24T09:39:03.329Z,40.92
2023-03-24T09:45:20.735Z,39.97
2023-03-24T09:51:27.537Z,39.55
2023-03-24T09:57:35.922Z,38.60
2023-03-24T10:03:37.859Z,38.25
2023-03-24T10:09:39.935Z,37.67
2023-03-24T10:15:48.459Z,37.32
2023-03-24T10:22:16.337Z,36.53
2023-03-24T10:28:39.424Z,36.63
2023-03-24T10:34:43.921Z,36.21
2023-03-24T10:40:47.154Z,35.78
2023-03-24T10:46:52.961Z,35.84
2023-03-24T10:52:55.342Z,35.34
2023-03-24T10:58:57.158Z,35.14
2023-03-24T11:05:13.707Z,34.85
2023-03-24T11:11:33.735Z,34.79
2023-03-24T11:17:35.461Z,34.70
2023-03-24T11:23:44.076Z,34.28
2023-03-24T11:29:51.126Z,33.23
2023-03-24T11:35:59.303Z,33.04
2023-03-24T11:42:11.383Z,33.23
2023-03-24T11:48:41.239Z,33.36
2023-03-24T11:54:43.618Z,32.62
2023-03-24T12:00:55.237Z,32.69
2023-03-24T12:07:15.788Z,32.01
2023-03-24T12:13:39.204Z,32.10
2023-03-24T12:19:43.820Z,32.06
2023-03-24T12:25:55.540Z,31.77
2023-03-24T12:32:36.844Z,31.61
2023-03-24T12:39:09.221Z,31.16
2023-03-24T12:45:22.027Z,31.55
2023-03-24T12:51:52.781Z,31.42
2023-03-24T12:57:59.868Z,31.13
2023-03-24T13:04:10.270Z,31.38
2023-03-24T13:10:14.774Z,31.78
2023-03-24T13:16:22.603Z,31.30
2023-03-24T13:22:24.729Z,31.82
2023-03-24T13:28:35.666Z,32.49
2023-03-24T13:34:40.685Z,32.38
2023-03-24T13:40:42.974Z,32.78
2023-03-24T13:47:19.025Z,32.82
2023-03-24T13:53:36.839Z,32.98
2023-03-24T13:59:41.160Z,33.49
2023-03-24T14:06:00.501Z,33.83
2023-03-24T14:12:02.519Z,33.92
2023-03-24T14:18:24.251Z,34.14
2023-03-24T14:24:28.831Z,33.80
2023-03-24T14:30:31.247Z,34.18
2023-03-24T14:36:42.102Z,35.05
2023-03-24T14:42:43.625Z,35.24
2023-03-24T14:49:23.624Z,35.10
2023-03-24T14:55:26.419Z,34.81
2023-03-24T15:01:37.452Z,34.42
2023-03-24T15:07:39.845Z,34.27
2023-03-24T15:13:52.767Z,34.54
2023-03-24T15:19:54.707Z,34.48
2023-03-24T15:25:56.510Z,34.62
2023-03-24T15:31:58.233Z,34.74
2023-03-24T15:38:00.049Z,34.66
2023-03-24T15:44:07.553Z,34.87
2023-03-24T15:50:35.471Z,35.10
2023-03-24T15:56:37.504Z,35.15
2023-03-24T16:02:42.718Z,35.45
2023-03-24T16:08:45.887Z,35.66
2023-03-24T16:14:47.437Z,35.80
2023-03-24T16:20:51.307Z,35.82
2023-03-24T16:26:53.208Z,35.72
2023-03-24T16:32:55.012Z,35.88
2023-03-24T16:38:58.290Z,36.63
2023-03-24T16:45:00.572Z,36.43
2023-03-24T16:51:02.598Z,36.78
2023-03-24T16:57:04.284Z,36.77
2023-03-24T17:03:06.350Z,37.24
2023-03-24T17:09:09.323Z,38.62
2023-03-24T17:15:26.154Z,38.43
2023-03-24T17:21:28.351Z,38.78
2023-03-24T17:27:30.334Z,39.75
2023-03-24T17:33:36.027Z,40.16
2023-03-24T17:39:38.504Z,40.30
2023-03-24T17:45:40.933Z,40.15
2023-03-24T17:51:42.503Z,40.66
2023-03-24T17:57:44.653Z,41.90
2023-03-24T18:03:49.092Z,42.90
2023-03-24T18:09:51.314Z,44.71
2023-03-24T18:15:54.786Z,44.82
2023-03-24T18:21:56.367Z,44.94
2023-03-24T18:28:00.690Z,45.07
2023-03-24T18:34:05.764Z,45.79
2023-03-24T18:40:08.664Z,46.78
2023-03-24T18:46:10.967Z,48.35
2023-03-24T18:52:17.278Z,49.13
2023-03-24T18:58:24.820Z,49.41
2023-03-24T19:04:28.921Z,50.11
2023-03-24T19:10:34.969Z,50.17
2023-03-24T19:16:44.009Z,50.03
2023-03-24T19:22:47.089Z,49.75
2023-03-24T19:28:48.992Z,49.89
2023-03-24T19:34:50.892Z,50.23
2023-03-24T19:40:55.579Z,49.54
2023-03-24T19:46:58.587Z,49.98
2023-03-24T19:53:00.397Z,50.21
2023-03-24T19:59:04.327Z,49.73
2023-03-24T20:05:09.584Z,49.70
2023-03-24T20:11:11.752Z,50.15
2023-03-24T20:17:18.716Z,50.16
2023-03-24T20:23:21.596Z,50.63
2023-03-24T20:29:23.353Z,50.08
2023-03-24T20:35:27.244Z,50.39
2023-03-24T20:41:28.971Z,50.31
2023-03-24T20:47:30.939Z,50.20
2023-03-24T20:53:34.112Z,50.46
2023-03-24T20:59:37.445Z,50.89
2023-03-24T21:05:39.106Z,50.75
2023-03-24T21:11:40.580Z,50.55
2023-03-24T21:17:42.445Z,50.91
2023-03-24T21:23:44.387Z,52.65
2023-03-24T21:29:46.100Z,52.89
2023-03-24T21:35:47.941Z,52.82
2023-03-24T21:41:51.659Z,52.90
2023-03-24T21:47:54.321Z,52.71
2023-03-24T21:53:56.049Z,52.91
2023-03-24T21:59:58.642Z,52.98
2023-03-24T22:06:00.349Z,53.26
2023-03-24T22:12:01.826Z,53.48
2023-03-24T22:18:03.603Z,53.41
2023-03-24T22:24:05.841Z,53.32
2023-03-24T22:30:11.386Z,53.30
2023-03-24T22:36:12.869Z,53.06
2023-03-24T22:42:15.324Z,52.96
2023-03-24T22:48:17.088Z,52.80
2023-03-24T22:54:18.664Z,53.57
2023-03-24T23:00:20.557Z,54.23
2023-03-24T23:06:22.131Z,54.52
2023-03-24T23:12:24.366Z,55.10
2023-03-24T23:18:25.833Z,55.34
2023-03-24T23:24:28.082Z,55.98
2023-03-24T23:30:29.650Z,56.41
2023-03-24T23:36:33.404Z,56.50
2023-03-24T23:42:36.498Z,56.59
2023-03-24T23:48:38.000Z,56.49
2023-03-24T23:54:39.684Z,56.86
